Ride Results

Johnny Green Memorial (10-10-2020)
Ride distance: 84.0 km

Outcomes - Johnny Green Memorial (10-10-2020)
Division No. of Entries Retired / DNE Completed Withdrawn Ineligible V/O Percentage Completed
HW 7 - 6 1 - - 85.71%
MW 20 - 10 - 1 9 50.00%
LW 11 - 9 - 1 1 81.82%
JN 2 - 2 - - - 100.00%
Totals 40 - 27 1 2 10 67.50%
Results - Johnny Green Memorial (10-10-2020)
No. Rider Horse Place Time Leg Speeds Total
Km/Hr
H/R bpm
Heavyweight
122 Ged Nicklason Wongawol Legend 1 (BC) 5:23:57 16.6, 14.5 15.56 38, 48, 59 (Avg:53)
38 Tony Purton Beer Street Aslan T B 2 6:43:57 16.6, 9.9 12.48 47, 52, 60 (Avg:56)
171 Craig Wall Undurra Angelise 3 6:46:18 12.8, 11.9 12.40 45, 46, 60 (Avg:53)
219 Trenton Huxtable Samson of Glendhu 4 8:08:43 11.0, 9.6 10.31 39, 52, 60 (Avg:56)
82 Mark Dunn Calypso 5 8:20:10 11.5, 8.9 10.08 36, 51, 57 (Avg:54)
242 Allie Bloom Indigo 6 8:20:52 10.1, 10.0 10.06 37, 48, 54 (Avg:51)
247 David Pilgrim Zarahemla Lord Falcon W/D after vetting L1 0:00:00 - - 41, 42 (Avg:42)
Middleweight
125 Brooke Brown-Cordell Vandieman Tyra 1 5:29:19 14.9, 15.6 15.30 37, 42, 54 (Avg:48)
80 Noel Lockhart Lockleigh Park Turbulence 2 (BC) 5:40:04 14.6, 14.9 14.82 31, 35, 46 (Avg:40)
254 Deb Wyllie Beer Street Dezhda 3 6:21:50 13.2, 13.1 13.20 42, 41, 55 (Avg:48)
57 Tania Jago Undurra Max 4 6:46:28 13.0, 11.8 12.40 39, 52, 60 (Avg:56)
139 Cacia Rand Shayelle Chocolate 5 7:03:31 12.4, 11.3 11.90 37, 41, 46 (Avg:43)
78 Brad Hill Lockleigh Park Destinee 6 7:12:19 11.9, 11.3 11.66 35, 40, 41 (Avg:40)
77 Tim Barker Lockleigh Park Magic Miss 7 7:12:25 11.9, 11.3 11.66 32, 39, 44 (Avg:41)
162 Linda Pilgrim Lauralyn Fascination 8 8:14:00 10.2, 10.1 10.20 39, 39, 45 (Avg:42)
68 Janine Parr Valley Springs Kamal 9 8:20:39 10.1, 10.0 10.07 39, 42, 50 (Avg:46)
4 Helen Bowkett Kintamani Silver Daquiri 10 8:22:44 10.0, 9.9 10.03 34, 41, 52 (Avg:46)
218 Chelsea Cannon Sanndenoa Shining Constellation Heart Rate L2 0:00:00 14.9, 15.6 - 39, 51, 62 (Avg:56)
279 Christine Dann Envios Heart Rate L2 0:00:00 10.3, 9.3 - 43, 51, 70 (Avg:60)
72 Liv Lawson Jabberwocky Lame L2 0:00:00 12.4, 9.2 - 43, 50, 53 (Avg:51)
258 Tiffany Morley Cameo Izaiah Heart Rate L2 0:00:00 12.9, 12.1 - 46, 47, 64 (Avg:55)
106 Shane Neilley Woodsong Sodium Lame L2 0:00:00 11.0, 9.8 - 50, 50, 60 (Avg:55)
286 Tracy Smee Bellatrix Witch Heart Rate L2 0:00:00 15.6, 13.0 - 33, 45, 70 (Avg:57)
263 Ali Smith Vern Lame L2 0:00:00 10.2, 10.1 - 39, 47, 51 (Avg:49)
300 Raelene Smith Acaciavej Silk'n Velvet Lame L2 0:00:00 16.6, 14.5 - 50, 44, 50 (Avg:47)
142 Shayne Williams Shayelle Boh Magic Lame L2 0:00:00 12.4, 11.3 - 42, 51, 54 (Avg:52)
179 Debbie Grull Lauralyn Notorious Not started P/R 0:00:00 - - 39
Lightweight
253 Kelly Woodhouse Yondover Ridge Bee 1 5:37:42 14.6, 15.2 14.92 33, 47, 50 (Avg:48)
113 Kirstie Lockhart Archerville Cimarron 2 (BC) 5:40:07 14.6, 14.9 14.82 36, 46, 52 (Avg:49)
L Angie Clark Littlebanks Troubadour 3 6:20:05 12.9, 13.6 13.26 42, 36, 51 (Avg:43)
163 Lydia Rigby Z'lights Giselle 4 6:39:12 13.2, 12.0 12.63 38, 37, 46 (Avg:41)
54 Brooke McKenna Miss Mika 5 6:46:03 12.8, 11.9 12.41 37, 48, 51 (Avg:49)
328 Megan Finn Enderby Nefertiti 6 7:58:24 10.9, 10.1 10.54 33, 49, 59 (Avg:54)
200 Kristy Matheson Highland View Chelsea 7 8:08:56 11.0, 9.6 10.31 37, 41, 46 (Avg:43)
212 Samantha Graham Follydown Albertine 8 8:20:02 11.5, 8.9 10.08 42, 50, 50 (Avg:50)
228 Melissa Kelly Harmony 8 8:20:02 11.5, 8.9 10.08 35, 45, 50 (Avg:47)
74 Felicity Perry Wattlewood Park Kalee Under Time L2
(On Course 3:01:53)
0:00:00 12.8, 13.5 - 36, 48, 59 (Avg:53)
100 Trish Smith Kasdell Lukah Lame L2 0:00:00 11.6, 9.6 - 33, 48, 48 (Avg:48)
Junior
105 Shanna Samec Kalody Park White Feather 1 (BC) 8:04:11 11.1, 9.7 10.41 37, 47, 60 (Avg:53)
334 Halla Parr Janarr Shimmering Surprise 2 8:20:43 10.1, 10.0 10.07 35, 40, 49 (Avg:44)